Time;durP1;ratioP1;P1;durP2;ratioP2;P2;SDS_P1;SDS_P2;PMS_P1;PMS_P2;Temp;Humidity;BMP_temperature;BMP_pressure;BME280_temperature;BME280_humidity;BME280_pressure;Samples;Min_cycle;Max_cycle;Signal;HPM_P1;HPM_P2
2022/03/25 00:00:47;;;;;;;1999.90;999.90;;;;;;;7.96;53.25;164520.25;5013581;28;20117;-67
2022/03/25 00:03:14;;;;;;;1999.90;999.90;;;;;;;7.98;53.19;164525.78;4997011;28;20081;-67
2022/03/25 00:05:40;;;;;;;1999.90;999.90;;;;;;;7.87;53.29;164495.50;5004707;28;20100;-67
2022/03/25 00:08:08;;;;;;;1999.90;999.90;;;;;;;7.88;53.15;164498.28;4994689;28;20133;-67
2022/03/25 00:10:34;;;;;;;1999.90;999.90;;;;;;;7.87;53.64;164495.50;5012850;28;20111;-68
2022/03/25 00:13:01;;;;;;;1999.90;999.90;;;;;;;7.78;53.70;164470.78;5002187;28;20085;-67
2022/03/25 00:15:27;;;;;;;1999.90;999.90;;;;;;;7.67;53.96;164443.28;4990385;28;20081;-67
2022/03/25 00:17:54;;;;;;;1999.90;999.90;;;;;;;7.67;53.77;164443.28;5005112;28;20104;-67
2022/03/25 00:20:20;;;;;;;1999.90;999.90;;;;;;;7.67;54.69;164443.28;4996771;28;20436;-67
2022/03/25 00:22:47;;;;;;;1999.90;999.90;;;;;;;7.40;54.87;164371.81;5008300;28;20084;-68
2022/03/25 00:25:13;;;;;;;1999.90;999.90;;;;;;;7.24;55.64;164327.84;5009074;28;20061;-68
2022/03/25 00:27:40;;;;;;;1999.90;999.90;;;;;;;6.78;56.96;164204.19;4986820;28;20529;-68
2022/03/25 00:30:07;;;;;;;1999.90;999.90;;;;;;;6.91;57.95;164238.50;5003676;28;20177;-68
2022/03/25 00:32:35;;;;;;;1999.90;999.90;;;;;;;6.68;57.74;164178.06;4987477;28;20137;-68
2022/03/25 00:35:01;;;;;;;1999.90;999.90;;;;;;;6.90;56.88;164235.78;5007379;28;20073;-68
2022/03/25 00:37:28;;;;;;;1999.90;999.90;;;;;;;6.88;57.04;164231.66;5000302;28;20081;-68
2022/03/25 00:39:55;;;;;;;1999.90;999.90;;;;;;;6.97;56.25;164255.03;5020026;28;20072;-68
2022/03/25 00:42:21;;;;;;;1999.90;999.90;;;;;;;7.17;54.78;164308.59;5007726;28;20128;-68
2022/03/25 00:44:48;;;;;;;1999.90;999.90;;;;;;;7.29;54.74;164341.56;4995865;28;20490;-68
2022/03/25 00:47:15;;;;;;;1999.90;999.90;;;;;;;7.28;54.14;164337.44;5007899;28;20133;-68
2022/03/25 00:49:42;;;;;;;1999.90;999.90;;;;;;;7.33;53.57;164351.19;5000129;28;20490;-68
2022/03/25 00:52:08;;;;;;;1999.90;999.90;;;;;;;7.33;53.40;164352.56;5007572;28;20379;-68
2022/03/25 00:54:36;;;;;;;1999.90;999.90;;;;;;;7.26;53.25;164331.97;4999351;28;20057;-68
2022/03/25 00:57:03;;;;;;;1999.90;999.90;;;;;;;7.26;53.03;164331.97;5004301;28;20521;-68
2022/03/25 00:59:29;;;;;;;1999.90;999.90;;;;;;;7.26;53.20;164333.31;5010455;28;20226;-68
2022/03/25 01:01:56;;;;;;;1999.90;999.90;;;;;;;7.22;53.31;164322.34;5000120;28;20061;-68
2022/03/25 01:04:23;;;;;;;1999.90;999.90;;;;;;;7.27;52.96;164336.06;5003460;28;20049;-68
2022/03/25 01:06:50;;;;;;;1999.90;999.90;;;;;;;7.23;54.59;164325.06;4993778;28;20085;-68
2022/03/25 01:09:16;;;;;;;1999.90;999.90;;;;;;;7.22;55.05;164322.34;5008794;28;20132;-68
2022/03/25 01:11:43;;;;;;;1999.90;999.90;;;;;;;7.19;54.77;164314.06;5007705;28;20081;-68
2022/03/25 01:14:09;;;;;;;1999.90;999.90;;;;;;;7.05;54.77;164278.34;4986690;28;20322;-68
2022/03/25 01:16:36;;;;;;;1999.90;999.90;;;;;;;6.99;54.72;164260.50;5007914;28;20053;-68
2022/03/25 01:19:03;;;;;;;1999.90;999.90;;;;;;;6.95;55.67;164250.91;4998052;28;20119;-68
2022/03/25 01:21:29;;;;;;;1999.90;999.90;;;;;;;6.80;54.84;164211.06;5003194;28;20050;-68
2022/03/25 01:23:57;;;;;;;1999.90;999.90;;;;;;;6.68;54.71;164179.47;4991459;28;20074;-68
2022/03/25 01:26:24;;;;;;;1999.90;999.90;;;;;;;6.64;54.28;164168.47;5006138;28;20078;-68
2022/03/25 01:28:52;;;;;;;1999.90;999.90;;;;;;;6.59;54.66;164154.69;4999415;28;20082;-68
2022/03/25 01:31:20;;;;;;;1999.90;999.90;;;;;;;6.67;54.21;164176.72;4994994;28;20057;-68
2022/03/25 01:33:46;;;;;;;1999.90;999.90;;;;;;;6.73;53.85;164191.81;5002132;28;20077;-68
2022/03/25 01:36:13;;;;;;;1999.90;999.90;;;;;;;6.62;53.77;164161.59;4992978;28;20164;-68
2022/03/25 01:38:39;;;;;;;1999.90;999.90;;;;;;;6.28;54.90;164072.34;5008090;28;20314;-68
2022/03/25 01:41:07;;;;;;;1999.90;999.90;;;;;;;6.24;55.36;164061.34;4998726;28;20092;-68
2022/03/25 01:43:34;;;;;;;1999.90;999.90;;;;;;;6.47;55.34;164121.75;5003119;28;20050;-67
2022/03/25 01:46:01;;;;;;;1999.90;999.90;;;;;;;6.33;55.05;164086.03;5008601;28;20104;-68
2022/03/25 01:48:28;;;;;;;1999.90;999.90;;;;;;;6.48;54.59;164125.88;4997933;28;20057;-67
2022/03/25 01:50:54;;;;;;;1999.90;999.90;;;;;;;6.38;55.31;164097.03;5006260;28;20475;-67
2022/03/25 01:53:23;;;;;;;1999.90;999.90;;;;;;;6.40;54.83;164102.53;4998051;28;20081;-67
2022/03/25 01:55:56;;;;;;;1999.90;999.90;;;;;;;6.54;54.70;164141.00;5001777;28;20133;-68
2022/03/25 01:58:25;;;;;;;1999.90;999.90;;;;;;;6.62;54.84;164161.59;5002584;28;20416;-68
2022/03/25 02:00:52;;;;;;;1999.90;999.90;;;;;;;6.60;55.31;164157.47;5002173;28;20277;-67
2022/03/25 02:03:19;;;;;;;1999.90;999.90;;;;;;;6.61;55.32;164160.22;5004652;28;20138;-67
2022/03/25 02:05:47;;;;;;;1999.90;999.90;;;;;;;6.68;55.18;164178.06;4995462;28;20045;-67
2022/03/25 02:08:14;;;;;;;1999.90;999.90;;;;;;;6.61;55.59;164158.81;5005994;28;20108;-67
2022/03/25 02:10:41;;;;;;;1999.90;999.90;;;;;;;6.58;56.33;164152.00;5006322;28;21033;-67
2022/03/25 02:13:09;;;;;;;1999.90;999.90;;;;;;;6.61;56.22;164158.81;5008009;28;20077;-67
2022/03/25 02:15:40;;;;;;;1999.90;999.90;;;;;;;6.63;56.28;164164.34;5010184;28;20050;-67
2022/03/25 02:18:12;;;;;;;;;;;;;;;6.64;56.16;164168.47;4999857;28;20054;-68
2022/03/25 02:20:39;;;;;;;1999.90;999.90;;;;;;;6.64;56.18;164168.47;5011021;28;20467;-68
2022/03/25 02:23:08;;;;;;;1999.90;999.90;;;;;;;6.67;56.04;164176.72;5000609;28;20547;-68
2022/03/25 02:25:35;;;;;;;1999.90;999.90;;;;;;;6.55;56.24;164143.75;5005836;28;20135;-68
2022/03/25 02:28:03;;;;;;;1999.90;999.90;;;;;;;6.46;56.87;164119.00;5002567;28;20350;-68
2022/03/25 02:30:31;;;;;;;1999.90;999.90;;;;;;;6.47;57.07;164123.09;5010683;28;20050;-68
2022/03/25 02:33:01;;;;;;;1999.90;999.90;;;;;;;6.34;58.20;164088.81;5011985;28;20111;-68
2022/03/25 02:35:42;;;;;;;1999.90;999.90;;;;;;;6.34;58.28;164088.81;4998656;28;20502;-68
2022/03/25 02:38:12;;;;;;;1999.90;999.90;;;;;;;6.34;58.42;164088.81;5013769;28;20439;-67
2022/03/25 02:40:39;;;;;;;1999.90;999.90;;;;;;;6.35;58.29;164091.53;4990392;28;20050;-66
2022/03/25 02:43:08;;;;;;;1999.90;999.90;;;;;;;6.32;58.73;164083.28;5009527;28;20100;-67
2022/03/25 02:45:34;;;;;;;1999.90;999.90;;;;;;;6.38;57.75;164098.41;4997857;28;20085;-67
2022/03/25 02:48:02;;;;;;;1999.90;999.90;;;;;;;6.30;58.03;164077.81;5002389;28;20136;-67
2022/03/25 02:50:30;;;;;;;1999.90;999.90;;;;;;;6.25;58.29;164064.09;5008972;28;20081;-67
2022/03/25 02:52:58;;;;;;;1999.90;999.90;;;;;;;6.22;58.76;164054.47;4995788;28;20100;-67
2022/03/25 02:55:25;;;;;;;1999.90;999.90;;;;;;;6.21;58.85;164053.09;5010222;28;20054;-67
2022/03/25 02:57:52;;;;;;;1999.90;999.90;;;;;;;6.13;59.15;164031.09;4976211;28;20100;-67
2022/03/25 03:00:20;;;;;;;1999.90;999.90;;;;;;;6.08;59.62;164017.41;5013460;28;20049;-67
2022/03/25 03:02:47;;;;;;;1999.90;999.90;;;;;;;6.11;59.34;164025.63;5002459;28;20054;-67
2022/03/25 03:05:17;;;;;;;1999.90;999.90;;;;;;;6.10;59.36;164022.88;5013904;28;20095;-67
2022/03/25 03:07:48;;;;;;;1999.90;999.90;;;;;;;6.04;59.66;164006.41;5021520;28;20442;-67
2022/03/25 03:10:15;;;;;;;1999.90;999.90;;;;;;;5.96;59.53;163985.75;5003877;28;20432;-67
2022/03/25 03:12:42;;;;;;;1999.90;999.90;;;;;;;5.90;59.48;163970.66;5008296;28;20085;-67
2022/03/25 03:15:10;;;;;;;1999.90;999.90;;;;;;;5.89;59.42;163967.88;5010564;28;20050;-67
2022/03/25 03:17:37;;;;;;;1999.90;999.90;;;;;;;5.90;58.92;163970.66;5008395;28;20148;-67
2022/03/25 03:20:05;;;;;;;1999.90;999.90;;;;;;;5.90;58.50;163969.28;4997680;28;20081;-67
2022/03/25 03:22:31;;;;;;;1999.90;999.90;;;;;;;5.93;58.71;163977.53;5002257;28;20081;-67
2022/03/25 03:24:58;;;;;;;1999.90;999.90;;;;;;;5.96;58.73;163987.13;5004217;28;20053;-67
2022/03/25 03:27:25;;;;;;;1999.90;999.90;;;;;;;5.96;58.56;163985.75;5010795;28;20081;-67
2022/03/25 03:29:51;;;;;;;1999.90;999.90;;;;;;;5.89;58.56;163966.53;5013288;28;20346;-67
2022/03/25 03:32:18;;;;;;;1999.90;999.90;;;;;;;5.91;59.29;163973.41;5000476;28;20413;-67
2022/03/25 03:34:46;;;;;;;1999.90;999.90;;;;;;;5.95;59.55;163983.00;5014640;28;20096;-67
2022/03/25 03:37:12;;;;;;;1999.90;999.90;;;;;;;5.90;59.74;163970.66;5008490;28;20712;-67
2022/03/25 03:39:38;;;;;;;1999.90;999.90;;;;;;;6.01;59.10;163999.53;5004821;28;20111;-67
2022/03/25 03:42:05;;;;;;;1999.90;999.90;;;;;;;5.96;59.21;163987.13;5011565;28;20081;-67
2022/03/25 03:44:32;;;;;;;1999.90;999.90;;;;;;;5.92;59.78;163976.13;5000232;28;20077;-67
2022/03/25 03:46:58;;;;;;;1999.90;999.90;;;;;;;5.94;59.90;163980.25;5009706;28;20046;-67
2022/03/25 03:49:25;;;;;;;1999.90;999.90;;;;;;;5.89;60.27;163966.53;5001180;28;20081;-67
2022/03/25 03:51:51;;;;;;;1999.90;999.90;;;;;;;5.82;59.94;163950.06;5008875;28;20088;-67
2022/03/25 03:54:18;;;;;;;1999.90;999.90;;;;;;;5.84;59.35;163954.19;5004797;28;20081;-67
2022/03/25 03:56:45;;;;;;;1999.90;999.90;;;;;;;5.80;59.25;163943.19;4994648;28;20270;-67
2022/03/25 03:59:11;;;;;;;1999.90;999.90;;;;;;;5.84;59.87;163954.19;5012036;28;20400;-67
2022/03/25 04:01:38;;;;;;;1999.90;999.90;;;;;;;5.76;58.85;163933.59;5007267;28;20057;-67
2022/03/25 04:04:05;;;;;;;1999.90;999.90;;;;;;;5.71;58.45;163918.50;4995313;28;20076;-67
2022/03/25 04:06:32;;;;;;;1999.90;999.90;;;;;;;5.63;59.36;163899.28;5007266;28;20571;-67
2022/03/25 04:08:59;;;;;;;1999.90;999.90;;;;;;;5.63;59.75;163897.91;4994155;28;20236;-67
2022/03/25 04:11:25;;;;;;;1999.90;999.90;;;;;;;5.64;60.08;163902.03;5007583;28;20286;-67
2022/03/25 04:13:53;;;;;;;1999.90;999.90;;;;;;;5.68;59.99;163911.63;5009262;28;20077;-67
2022/03/25 04:16:21;;;;;;;1999.90;999.90;;;;;;;5.65;60.47;163903.38;5007070;28;20096;-66
2022/03/25 04:18:48;;;;;;;1999.90;999.90;;;;;;;5.65;60.92;163904.75;4991752;28;20068;-67
2022/03/25 04:21:15;;;;;;;1999.90;999.90;;;;;;;5.64;60.41;163902.03;5005172;28;20046;-67
2022/03/25 04:23:42;;;;;;;1999.90;999.90;;;;;;;5.66;60.21;163906.16;5007387;28;20439;-67
2022/03/25 04:26:08;;;;;;;1999.90;999.90;;;;;;;5.67;60.42;163907.50;5000154;28;20380;-67
2022/03/25 04:28:35;;;;;;;1999.90;999.90;;;;;;;5.59;60.55;163888.28;5008423;28;20054;-67
2022/03/25 04:31:02;;;;;;;1999.90;999.90;;;;;;;5.64;60.68;163902.03;4999303;28;20111;-67
2022/03/25 04:33:31;;;;;;;1999.90;999.90;;;;;;;5.62;61.10;163896.50;5025790;28;20119;-67
2022/03/25 04:35:58;;;;;;;1999.90;999.90;;;;;;;5.56;61.44;163878.69;4995678;28;20509;-67
2022/03/25 04:38:24;;;;;;;1999.90;999.90;;;;;;;5.60;61.27;163891.03;5006046;28;20090;-67
2022/03/25 04:40:51;;;;;;;1999.90;999.90;;;;;;;5.58;61.18;163884.16;5008262;28;20073;-67
2022/03/25 04:43:17;;;;;;;1999.90;999.90;;;;;;;5.56;61.01;163878.69;4987154;28;20434;-68
2022/03/25 04:45:44;;;;;;;1999.90;999.90;;;;;;;5.62;61.21;163895.16;5021768;28;20056;-67
2022/03/25 04:48:11;;;;;;;1999.90;999.90;;;;;;;5.67;61.52;163907.50;4998434;28;20046;-67
2022/03/25 04:50:38;;;;;;;1999.90;999.90;;;;;;;5.75;60.74;163930.84;5007545;28;20294;-67
2022/03/25 04:53:05;;;;;;;1999.90;999.90;;;;;;;5.79;59.68;163941.84;5006967;28;20726;-67
2022/03/25 04:55:32;;;;;;;1999.90;999.90;;;;;;;5.72;59.20;163921.25;4997269;28;20503;-68
2022/03/25 04:57:59;;;;;;;1999.90;999.90;;;;;;;5.71;59.45;163918.50;5004631;28;20453;-68
2022/03/25 05:00:29;;;;;;;1999.90;999.90;;;;;;;5.78;59.61;163939.06;4995853;28;20084;-67
2022/03/25 05:02:56;;;;;;;1999.90;999.90;;;;;;;5.77;60.00;163936.31;5004477;28;20335;-67
2022/03/25 05:05:22;;;;;;;1999.90;999.90;;;;;;;5.73;60.42;163923.97;4999112;28;20065;-68
2022/03/25 05:07:50;;;;;;;1999.90;999.90;;;;;;;5.70;60.53;163917.13;5008217;28;20432;-67
2022/03/25 05:10:16;;;;;;;1999.90;999.90;;;;;;;5.81;61.08;163945.94;5004453;28;20104;-67
2022/03/25 05:12:44;;;;;;;1999.90;999.90;;;;;;;5.85;60.67;163955.53;4998386;28;20053;-68
2022/03/25 05:15:11;;;;;;;1999.90;999.90;;;;;;;5.84;60.57;163954.19;5007173;28;20458;-67
2022/03/25 05:17:51;;;;;;;1999.90;999.90;;;;;;;6.01;59.91;163999.53;4989688;28;20050;-67
2022/03/25 05:20:19;;;;;;;1999.90;999.90;;;;;;;6.04;59.93;164006.41;5005816;28;20050;-67
2022/03/25 05:22:47;;;;;;;1999.90;999.90;;;;;;;5.96;60.88;163987.13;4997053;28;20521;-67
2022/03/25 05:25:14;;;;;;;1999.90;999.90;;;;;;;6.02;60.80;164000.94;5004465;28;20439;-67
2022/03/25 05:27:50;;;;;;;1999.90;999.90;;;;;;;6.13;59.59;164031.09;4999807;28;20435;-67
2022/03/25 05:30:22;;;;;;;1999.90;999.90;;;;;;;6.13;59.58;164031.09;4996526;28;20085;-67
2022/03/25 05:32:49;;;;;;;1999.90;999.90;;;;;;;6.16;59.58;164040.75;5002114;28;20046;-67
2022/03/25 05:35:28;;;;;;;1999.90;999.90;;;;;;;6.24;59.18;164061.34;4987128;28;20709;-67
2022/03/25 05:37:55;;;;;;;1999.90;999.90;;;;;;;6.29;59.00;164075.03;5004195;28;20140;-67
2022/03/25 05:40:23;;;;;;;1999.90;999.90;;;;;;;6.35;58.58;164091.53;4993458;28;20053;-67
2022/03/25 05:42:50;;;;;;;1999.90;999.90;;;;;;;6.44;58.23;164113.50;5006144;28;20092;-67
2022/03/25 05:45:19;;;;;;;1999.90;999.90;;;;;;;6.58;58.38;164152.00;4993848;28;20094;-67
2022/03/25 05:47:45;;;;;;;1999.90;999.90;;;;;;;6.68;58.74;164179.47;4990603;28;20132;-67
2022/03/25 05:50:13;;;;;;;1999.90;999.90;;;;;;;6.80;58.21;164209.66;5003627;28;20093;-67
2022/03/25 05:52:41;;;;;;;1999.90;999.90;;;;;;;6.93;58.37;164244.03;4993533;28;20054;-67
2022/03/25 05:55:09;;;;;;;1999.90;999.90;;;;;;;6.98;57.96;164257.75;5000702;28;20432;-67
2022/03/25 05:57:35;;;;;;;1999.90;999.90;;;;;;;7.16;57.72;164305.81;4983741;28;20081;-68
2022/03/25 06:00:04;;;;;;;1999.90;999.90;;;;;;;7.30;57.28;164344.31;5011021;28;20135;-68
2022/03/25 06:02:31;;;;;;;1999.90;999.90;;;;;;;7.45;56.91;164382.81;5008962;28;20058;-67
2022/03/25 06:04:58;;;;;;;1999.90;999.90;;;;;;;7.50;55.35;164396.53;4989014;28;20060;-67
2022/03/25 06:07:24;;;;;;;1999.90;999.90;;;;;;;7.64;54.29;164433.69;5010400;28;20119;-68
2022/03/25 06:09:52;;;;;;;1999.90;999.90;;;;;;;7.61;54.50;164425.38;5001053;28;20108;-68
2022/03/25 06:12:18;;;;;;;1999.90;999.90;;;;;;;7.86;53.22;164492.75;5017177;28;20089;-67
2022/03/25 06:14:45;;;;;;;1999.90;999.90;;;;;;;7.71;53.29;164454.28;5014135;28;20139;-67
2022/03/25 06:17:11;;;;;;;1999.90;999.90;;;;;;;7.83;52.36;164484.50;5010787;28;20108;-68
2022/03/25 06:19:38;;;;;;;1999.90;999.90;;;;;;;7.86;52.97;164494.16;5010601;28;20085;-67
2022/03/25 06:22:04;;;;;;;1999.90;999.90;;;;;;;8.24;51.74;164595.88;4999011;28;20104;-67
2022/03/25 06:24:31;;;;;;;1999.90;999.90;;;;;;;8.22;51.30;164589.03;5010640;28;20057;-67
2022/03/25 06:26:57;;;;;;;1999.90;999.90;;;;;;;8.32;51.74;164616.53;4996333;28;20077;-67
2022/03/25 06:29:23;;;;;;;1999.90;999.90;;;;;;;8.57;51.07;164683.94;5002424;28;20104;-68
2022/03/25 06:31:50;;;;;;;1999.90;999.90;;;;;;;8.84;50.70;164754.09;5010005;28;20057;-67
2022/03/25 06:34:20;;;;;;;1999.90;999.90;;;;;;;8.71;50.93;164721.09;5006430;28;20077;-68
2022/03/25 06:36:50;;;;;;;1999.90;999.90;;;;;;;8.66;50.71;164707.31;5010795;28;20394;-67
2022/03/25 06:39:17;;;;;;;1999.90;999.90;;;;;;;8.67;50.01;164710.09;4997368;28;20455;-68
2022/03/25 06:41:44;;;;;;;1999.90;999.90;;;;;;;8.68;50.11;164712.84;5010611;28;20108;-68
2022/03/25 06:44:11;;;;;;;1999.90;999.90;;;;;;;8.82;49.59;164751.34;5002457;28;20058;-68
2022/03/25 06:46:37;;;;;;;1999.90;999.90;;;;;;;8.73;49.47;164726.59;5010587;28;20092;-68
2022/03/25 06:49:05;;;;;;;1999.90;999.90;;;;;;;8.59;50.33;164689.47;5003494;28;20128;-68
2022/03/25 06:51:32;;;;;;;1999.90;999.90;;;;;;;8.80;49.56;164745.84;4995012;28;20492;-68
2022/03/25 06:53:59;;;;;;;1999.90;999.90;;;;;;;9.14;48.94;164836.66;5000830;28;20084;-68
2022/03/25 06:56:26;;;;;;;1999.90;999.90;;;;;;;9.42;49.72;164910.94;5000458;28;20081;-67
2022/03/25 06:58:52;;;;;;;1999.90;999.90;;;;;;;9.21;49.93;164854.53;5008682;28;20089;-68
2022/03/25 07:01:19;;;;;;;1999.90;999.90;;;;;;;9.59;49.62;164956.38;4999750;28;20155;-68
2022/03/25 07:03:46;;;;;;;1999.90;999.90;;;;;;;9.95;47.71;165052.72;5005716;28;20053;-68
2022/03/25 07:06:13;;;;;;;1999.90;999.90;;;;;;;10.12;48.00;165098.13;5010450;28;20057;-68
2022/03/25 07:08:40;;;;;;;1999.90;999.90;;;;;;;10.27;47.37;165136.69;5001729;28;20898;-67
2022/03/25 07:11:07;;;;;;;1999.90;999.90;;;;;;;10.30;47.15;165144.97;5010347;28;20463;-67
2022/03/25 07:13:34;;;;;;;1999.90;999.90;;;;;;;10.44;46.08;165183.59;5006280;28;20533;-68
2022/03/25 07:16:01;;;;;;;1999.90;999.90;;;;;;;10.45;46.69;165186.34;5009275;28;20113;-68
2022/03/25 07:18:27;;;;;;;1999.90;999.90;;;;;;;10.18;46.40;165113.28;5005578;28;20053;-67
2022/03/25 07:20:58;;;;;;;1999.90;999.90;;;;;;;10.47;47.25;165191.84;4993404;28;20077;-68
2022/03/25 07:23:24;;;;;;;1999.90;999.90;;;;;;;10.73;46.08;165260.69;5009692;28;20050;-68
2022/03/25 07:25:51;;;;;;;1999.90;999.90;;;;;;;11.17;45.11;165379.16;4993231;28;20090;-68
2022/03/25 07:28:17;;;;;;;1999.90;999.90;;;;;;;10.67;45.97;165244.16;5008174;28;20111;-68
2022/03/25 07:30:43;;;;;;;1999.90;999.90;;;;;;;11.21;44.60;165388.78;4991374;28;20054;-68
2022/03/25 07:33:10;;;;;;;1999.90;999.90;;;;;;;11.26;44.89;165402.59;5004063;28;20143;-68
2022/03/25 07:35:37;;;;;;;1999.90;999.90;;;;;;;11.34;45.62;165424.59;5013800;28;20671;-68
2022/03/25 07:38:06;;;;;;;1999.90;999.90;;;;;;;11.51;43.76;165470.13;4995785;28;20050;-67
2022/03/25 07:40:32;;;;;;;1999.90;999.90;;;;;;;11.96;42.76;165591.41;5009673;28;20099;-68
2022/03/25 07:42:59;;;;;;;1999.90;999.90;;;;;;;12.19;42.65;165652.06;5000398;28;20367;-68
2022/03/25 07:45:26;;;;;;;1999.90;999.90;;;;;;;12.01;42.27;165603.81;5005993;28;20153;-68
2022/03/25 07:47:53;;;;;;;1999.90;999.90;;;;;;;12.49;42.78;165733.44;4999206;28;20052;-68
2022/03/25 07:50:21;;;;;;;1999.90;999.90;;;;;;;12.74;40.40;165799.59;5005882;28;20081;-67
2022/03/25 07:52:49;;;;;;;1999.90;999.90;;;;;;;12.63;40.98;165770.66;5009714;28;20081;-67
2022/03/25 07:55:18;;;;;;;1999.90;999.90;;;;;;;12.80;41.08;165814.78;4999408;28;20058;-67
2022/03/25 07:57:46;;;;;;;1999.90;999.90;;;;;;;13.13;40.84;165903.03;5009353;28;20073;-67
2022/03/25 08:00:13;;;;;;;1999.90;999.90;;;;;;;13.30;40.36;165949.97;5003074;28;20060;-67
2022/03/25 08:02:41;;;;;;;1999.90;999.90;;;;;;;13.53;39.44;166010.69;5002208;28;20446;-67
2022/03/25 08:05:13;;;;;;;1999.90;999.90;;;;;;;13.30;39.80;165948.59;5002559;28;20046;-67
2022/03/25 08:07:40;;;;;;;;;;;;;;;13.42;40.86;165981.75;5006942;28;20088;-68
2022/03/25 08:10:07;;;;;;;1999.90;999.90;;;;;;;13.68;40.39;166050.72;4997376;28;19926;-67
2022/03/25 08:12:35;;;;;;;1999.90;999.90;;;;;;;13.99;39.51;166134.91;4997522;28;20108;-67
2022/03/25 08:15:06;;;;;;;1999.90;999.90;;;;;;;14.27;39.79;166209.44;5011099;28;20054;-67
2022/03/25 08:18:05;;;;;;;1999.90;999.90;;;;;;;14.44;37.82;166256.38;4990379;28;20077;-67
2022/03/25 08:20:35;;;;;;;1999.90;999.90;;;;;;;14.48;37.65;166266.03;5004496;28;20103;-67
2022/03/25 08:23:04;;;;;;;1999.90;999.90;;;;;;;14.96;37.56;166394.47;4988504;28;20135;-67
2022/03/25 08:28:18;;;;;;;1999.90;999.90;;;;;;;14.84;37.52;166362.78;4997247;28;20409;-67
2022/03/25 08:30:46;;;;;;;1999.90;999.90;;;;;;;15.22;36.73;166464.94;4988787;28;20510;-67
2022/03/25 08:33:13;;;;;;;1999.90;999.90;;;;;;;14.83;36.70;166358.56;5007012;28;20058;-67
2022/03/25 08:35:41;;;;;;;1999.90;999.90;;;;;;;15.24;37.60;166470.44;5005738;28;20458;-67
2022/03/25 08:38:08;;;;;;;1999.90;999.90;;;;;;;15.02;36.50;166409.69;5005224;28;20112;-68
2022/03/25 08:40:36;;;;;;;1999.90;999.90;;;;;;;15.46;36.59;166529.84;4992446;28;20054;-68
2022/03/25 08:43:23;;;;;;;1999.90;999.90;;;;;;;15.15;35.43;166445.59;5008015;28;20068;-68
2022/03/25 08:45:49;;;;;;;1999.90;999.90;;;;;;;15.24;35.76;166469.06;5002754;28;20077;-68
2022/03/25 08:48:16;;;;;;;1999.90;999.90;;;;;;;15.14;35.23;166442.88;4999306;28;20052;-68
2022/03/25 08:50:42;;;;;;;1999.90;999.90;;;;;;;15.07;36.23;166424.88;5008243;28;20077;-68
2022/03/25 08:53:09;;;;;;;1999.90;999.90;;;;;;;16.11;34.33;166704.00;4999138;28;20085;-68
2022/03/25 08:55:35;;;;;;;1999.90;999.90;;;;;;;15.81;33.09;166622.50;4997439;28;20049;-68
2022/03/25 08:58:02;;;;;;;1999.90;999.90;;;;;;;15.88;34.14;166641.78;4992030;28;20195;-68
2022/03/25 09:00:28;;;;;;;1999.90;999.90;;;;;;;16.03;33.45;166681.84;5012922;28;20474;-68
2022/03/25 09:02:55;;;;;;;1999.90;999.90;;;;;;;16.16;33.21;166716.41;5008562;28;20050;-68
2022/03/25 09:05:22;;;;;;;1999.90;999.90;;;;;;;16.03;33.43;166681.84;4997785;28;20081;-68
2022/03/25 09:07:48;;;;;;;1999.90;999.90;;;;;;;16.07;34.75;166691.56;5008217;28;20049;-68
2022/03/25 09:10:15;;;;;;;1999.90;999.90;;;;;;;16.35;34.06;166768.94;4996038;28;20050;-68
2022/03/25 09:12:43;;;;;;;1999.90;999.90;;;;;;;16.24;33.30;166738.56;5006814;28;20054;-68
2022/03/25 09:15:12;;;;;;;1999.90;999.90;;;;;;;16.62;32.46;166839.44;5009270;28;20514;-68
2022/03/25 09:17:46;;;;;;;1999.90;999.90;;;;;;;17.25;32.39;167009.50;4997520;28;20054;-68
2022/03/25 09:20:13;;;;;;;1999.90;999.90;;;;;;;17.48;30.02;167070.41;5003909;28;20559;-68
2022/03/25 09:22:41;;;;;;;1999.90;999.90;;;;;;;17.21;31.02;166998.50;4993319;28;20182;-68
2022/03/25 09:25:08;;;;;;;1999.90;999.90;;;;;;;17.37;30.27;167041.31;5000129;28;20105;-68
2022/03/25 09:27:35;;;;;;;1999.90;999.90;;;;;;;16.59;31.70;166831.16;4997976;28;20081;-68
2022/03/25 09:30:07;;;;;;;1999.90;999.90;;;;;;;17.14;31.34;166979.13;5003778;28;20081;-68
2022/03/25 09:32:53;;;;;;;1999.90;999.90;;;;;;;16.97;31.52;166933.47;4988449;28;20150;-68
2022/03/25 09:35:21;;;;;;;1999.90;999.90;;;;;;;17.45;30.46;167063.47;5012048;28;20077;-68
2022/03/25 09:37:49;;;;;;;1999.90;999.90;;;;;;;17.70;29.34;167131.22;5006092;28;20085;-68
2022/03/25 09:40:22;;;;;;;1999.90;999.90;;;;;;;17.47;29.26;167067.63;4997759;28;20046;-68
2022/03/25 09:42:55;;;;;;;1999.90;999.90;;;;;;;17.54;30.59;167086.97;5008035;28;20061;-69
2022/03/25 09:45:22;;;;;;;1999.90;999.90;;;;;;;17.94;30.99;167194.91;4995104;28;20108;-68
2022/03/25 09:47:50;;;;;;;1999.90;999.90;;;;;;;16.83;32.03;166897.47;5001120;28;20093;-67
2022/03/25 09:50:23;;;;;;;1999.90;999.90;;;;;;;17.49;30.89;167074.53;4994585;28;20079;-66
2022/03/25 09:52:51;;;;;;;1999.90;999.90;;;;;;;17.83;28.96;167165.78;5008041;28;20413;-67
2022/03/25 09:55:36;;;;;;;1999.90;999.90;;;;;;;17.20;30.28;166997.06;4999414;28;20049;-67
2022/03/25 09:58:03;;;;;;;1999.90;999.90;;;;;;;16.95;30.66;166927.97;5004152;28;20482;-67
2022/03/25 10:00:30;;;;;;;1999.90;999.90;;;;;;;17.30;30.74;167021.94;5009120;28;20141;-67
2022/03/25 10:02:57;;;;;;;1999.90;999.90;;;;;;;18.29;30.24;167288.97;4998377;28;20286;-67
2022/03/25 10:05:24;;;;;;;1999.90;999.90;;;;;;;18.62;28.91;167378.94;5006507;28;20065;-68
2022/03/25 10:07:56;;;;;;;1999.90;999.90;;;;;;;18.11;29.92;167240.53;4998290;28;20058;-67
2022/03/25 10:10:25;;;;;;;1999.90;999.90;;;;;;;17.32;29.55;167027.50;5007877;28;20371;-67
2022/03/25 10:13:00;;;;;;;1999.90;999.90;;;;;;;17.46;30.63;167066.19;4999278;28;20089;-67
2022/03/25 10:15:29;;;;;;;1999.90;999.90;;;;;;;17.88;29.79;167179.63;5010253;28;20140;-67
2022/03/25 10:18:01;;;;;;;1999.90;999.90;;;;;;;18.37;30.75;167309.72;5007126;28;20053;-67
2022/03/25 10:20:32;;;;;;;1999.90;999.90;;;;;;;18.49;28.60;167342.94;4990239;28;20060;-67
2022/03/25 10:23:19;;;;;;;1999.90;999.90;;;;;;;18.28;29.75;167287.59;5007408;28;20061;-69
2022/03/25 10:25:51;;;;;;;1999.90;999.90;;;;;;;18.30;29.61;167293.13;4991890;28;20065;-67
2022/03/25 10:28:34;;;;;;;1999.90;999.90;;;;;;;18.94;30.50;167464.75;5002101;28;20050;-67
2022/03/25 10:31:05;;;;;;;1999.90;999.90;;;;;;;18.74;29.14;167409.34;4992410;28;20058;-69
2022/03/25 10:33:42;;;;;;;1999.90;999.90;;;;;;;18.39;29.09;167315.28;5012493;28;20204;-69
2022/03/25 10:36:11;;;;;;;1999.90;999.90;;;;;;;17.92;29.46;167190.78;4998236;28;20410;-66
2022/03/25 10:38:42;;;;;;;1999.90;999.90;;;;;;;18.45;29.93;167333.22;5010264;28;20116;-67
2022/03/25 10:41:09;;;;;;;1999.90;999.90;;;;;;;18.80;30.29;167425.94;5010814;28;20116;-67
2022/03/25 10:44:08;;;;;;;1999.90;999.90;;;;;;;18.69;29.33;167395.53;4991091;28;20103;-67
2022/03/25 10:46:39;;;;;;;1999.90;999.90;;;;;;;17.85;31.43;167169.94;5003896;28;20111;-68
2022/03/25 10:49:11;;;;;;;1999.90;999.90;;;;;;;18.30;31.05;167293.13;5000670;28;20132;-67
2022/03/25 10:51:40;;;;;;;1999.90;999.90;;;;;;;17.71;31.63;167132.59;5011208;28;20137;-67
2022/03/25 10:54:10;;;;;;;1999.90;999.90;;;;;;;17.66;30.34;167118.78;4989604;28;20050;-66
2022/03/25 10:56:47;;;;;;;1999.90;999.90;;;;;;;19.11;28.83;167510.41;5009728;28;20112;-67
2022/03/25 10:59:23;;;;;;;1999.90;999.90;;;;;;;19.60;28.70;167641.94;4994417;28;20069;-67